createdAt,value
2018-02-22T00:01:17.244Z,38.33
2018-02-22T00:03:44.843Z,43.50
2018-02-22T00:06:12.478Z,43.07
2018-02-22T00:08:40.060Z,44.80
2018-02-22T00:11:07.685Z,43.87
2018-02-22T00:13:35.275Z,46.07
2018-02-22T00:16:02.900Z,39.50
2018-02-22T00:18:30.493Z,42.60
2018-02-22T00:20:58.115Z,40.37
2018-02-22T00:23:25.708Z,44.10
2018-02-22T00:25:53.343Z,44.37
2018-02-22T00:28:20.932Z,44.37
2018-02-22T00:30:48.522Z,45.67
2018-02-22T00:33:16.157Z,47.03
2018-02-22T00:35:43.782Z,49.27
2018-02-22T00:38:11.414Z,41.93
2018-02-22T00:40:39.006Z,51.07
2018-02-22T00:43:06.646Z,51.47
2018-02-22T00:45:34.274Z,50.53
2018-02-22T00:48:01.888Z,42.50
2018-02-22T00:50:30.282Z,49.13
2018-02-22T00:52:58.638Z,44.00
2018-02-22T00:55:26.287Z,42.27
2018-02-22T00:57:53.922Z,46.23
2018-02-22T01:00:21.505Z,45.13
2018-02-22T01:02:49.102Z,46.23
2018-02-22T01:05:17.510Z,44.80
2018-02-22T01:07:45.104Z,47.33
2018-02-22T01:10:12.690Z,51.20
2018-02-22T01:12:40.317Z,46.23
2018-02-22T01:15:07.940Z,44.63
2018-02-22T01:17:35.529Z,45.97
2018-02-22T01:20:03.160Z,46.10
2018-02-22T01:22:30.781Z,46.73
2018-02-22T01:24:58.414Z,50.07
2018-02-22T01:27:26.048Z,44.03
2018-02-22T01:29:53.643Z,50.03
2018-02-22T01:32:21.279Z,44.73
2018-02-22T01:34:49.048Z,46.80
2018-02-22T01:37:16.633Z,46.77
2018-02-22T01:39:44.268Z,51.80
2018-02-22T01:42:11.874Z,50.67
2018-02-22T01:44:39.474Z,47.47
2018-02-22T01:47:07.104Z,47.70
2018-02-22T01:49:34.691Z,50.73
2018-02-22T01:52:02.327Z,51.20
2018-02-22T01:54:29.916Z,52.00
2018-02-22T01:56:57.507Z,50.27
2018-02-22T01:59:25.146Z,52.20
2018-02-22T02:01:52.742Z,52.33
2018-02-22T02:04:20.378Z,51.50
2018-02-22T02:06:47.973Z,50.87
2018-02-22T02:09:15.575Z,52.37
2018-02-22T02:11:43.212Z,48.73
2018-02-22T02:14:10.827Z,55.10
2018-02-22T02:16:38.453Z,55.53
2018-02-22T02:19:06.043Z,52.90
2018-02-22T02:21:33.677Z,55.27
2018-02-22T02:24:02.029Z,57.63
2018-02-22T02:26:29.627Z,63.30
2018-02-22T02:28:57.255Z,61.13
2018-02-22T02:31:24.848Z,58.40
2018-02-22T02:36:25.303Z,59.93
2018-02-22T02:38:52.901Z,56.30
2018-02-22T02:41:20.524Z,54.07
2018-02-22T02:43:48.118Z,56.43
2018-02-22T02:46:15.700Z,57.90
2018-02-22T02:48:43.336Z,54.33
2018-02-22T02:51:10.922Z,54.70
2018-02-22T02:53:38.559Z,59.70
2018-02-22T02:56:06.154Z,58.33
2018-02-22T02:58:33.745Z,55.70
2018-02-22T03:01:02.145Z,52.20
2018-02-22T03:03:29.778Z,56.37
2018-02-22T03:05:57.422Z,63.37
2018-02-22T03:08:25.008Z,71.50
2018-02-22T03:10:52.637Z,66.57
2018-02-22T03:13:20.263Z,65.03
2018-02-22T03:15:47.912Z,55.50
2018-02-22T03:18:15.557Z,64.53
2018-02-22T03:20:43.906Z,65.90
2018-02-22T03:23:11.493Z,58.60
2018-02-22T03:25:39.110Z,64.27
2018-02-22T03:28:06.695Z,60.40
2018-02-22T03:30:34.323Z,68.13
2018-02-22T03:33:01.920Z,69.27
2018-02-22T03:35:29.573Z,70.63
2018-02-22T03:37:57.175Z,63.90
2018-02-22T03:40:24.804Z,69.90
2018-02-22T03:42:52.428Z,64.60
2018-02-22T03:45:20.016Z,65.90
2018-02-22T03:47:47.647Z,74.37
2018-02-22T03:50:15.234Z,68.53
2018-02-22T03:52:42.856Z,69.90
2018-02-22T03:55:10.451Z,63.37
2018-02-22T03:57:38.077Z,64.07
2018-02-22T04:00:05.671Z,56.13
2018-02-22T04:02:33.311Z,65.17
2018-02-22T04:05:00.901Z,59.30
2018-02-22T04:07:28.487Z,61.83
2018-02-22T04:09:56.118Z,60.97
2018-02-22T04:12:23.708Z,64.40
2018-02-22T04:14:51.306Z,65.97
2018-02-22T04:17:18.928Z,65.80
2018-02-22T04:19:46.516Z,61.00
2018-02-22T04:22:17.093Z,67.33
2018-02-22T04:24:44.684Z,63.80
2018-02-22T04:27:12.315Z,66.57
2018-02-22T04:29:39.894Z,68.20
2018-02-22T04:32:07.534Z,64.33
2018-02-22T04:34:35.116Z,70.83
2018-02-22T04:37:02.699Z,64.57
2018-02-22T04:39:30.337Z,65.63
2018-02-22T04:41:57.922Z,61.93
2018-02-22T04:44:25.567Z,67.47
2018-02-22T04:46:53.156Z,67.20
2018-02-22T04:49:20.749Z,61.67
2018-02-22T04:51:48.380Z,61.80
2018-02-22T04:54:15.973Z,59.63
2018-02-22T04:56:43.612Z,61.67
2018-02-22T04:59:11.212Z,68.00
2018-02-22T05:01:38.802Z,61.53
2018-02-22T05:04:06.447Z,64.43
2018-02-22T05:06:34.045Z,62.10
2018-02-22T05:09:01.636Z,63.77
2018-02-22T05:11:29.252Z,65.77
2018-02-22T05:13:56.832Z,72.77
2018-02-22T05:16:25.220Z,70.70
2018-02-22T05:18:53.603Z,69.80
2018-02-22T05:21:21.991Z,81.33
2018-02-22T05:23:49.582Z,82.27
2018-02-22T05:26:17.217Z,85.87
2018-02-22T05:28:44.805Z,82.17
2018-02-22T05:31:12.394Z,80.23
2018-02-22T05:33:40.032Z,92.47
2018-02-22T05:36:07.621Z,90.77
2018-02-22T05:38:35.217Z,90.83
2018-02-22T05:41:02.834Z,82.33
2018-02-22T05:43:30.432Z,80.00
2018-02-22T05:45:58.051Z,86.03
2018-02-22T05:48:25.639Z,90.07
2018-02-22T05:50:53.297Z,89.63
2018-02-22T05:53:20.883Z,94.27
2018-02-22T05:55:48.509Z,85.63
2018-02-22T05:58:16.092Z,104.27
2018-02-22T06:00:43.726Z,85.67
2018-02-22T06:03:11.367Z,81.57
2018-02-22T06:05:38.962Z,80.10
2018-02-22T06:08:06.552Z,85.70
2018-02-22T06:10:34.174Z,69.83
2018-02-22T06:13:01.814Z,71.10
2018-02-22T06:15:29.398Z,75.23
2018-02-22T06:17:57.022Z,85.13
2018-02-22T06:20:24.656Z,81.83
2018-02-22T06:22:53.009Z,80.50
2018-02-22T06:25:20.626Z,81.47
2018-02-22T06:27:48.255Z,75.23
2018-02-22T06:30:16.614Z,81.10
2018-02-22T06:32:44.198Z,82.63
2018-02-22T06:35:11.828Z,91.43
2018-02-22T06:37:39.422Z,90.77
2018-02-22T06:40:07.008Z,90.17
2018-02-22T06:42:34.640Z,79.33
2018-02-22T06:45:02.269Z,91.00
2018-02-22T06:47:29.885Z,91.10
2018-02-22T06:49:57.765Z,89.87
2018-02-22T06:52:25.377Z,87.50
2018-02-22T06:54:53.011Z,94.60
2018-02-22T06:57:20.606Z,87.30
2018-02-22T06:59:48.240Z,93.73
2018-02-22T07:02:15.883Z,90.50
2018-02-22T07:04:43.464Z,94.43
2018-02-22T07:07:11.049Z,94.27
2018-02-22T07:09:38.678Z,94.50
2018-02-22T07:12:06.269Z,87.40
2018-02-22T07:14:33.851Z,93.47
2018-02-22T07:17:01.506Z,93.07
2018-02-22T07:19:29.101Z,91.50
2018-02-22T07:21:56.725Z,88.70
2018-02-22T07:24:24.318Z,89.17
2018-02-22T07:26:51.995Z,89.87
2018-02-22T07:29:19.560Z,75.97
2018-02-22T07:31:47.188Z,78.93
2018-02-22T07:34:14.803Z,87.37
2018-02-22T07:36:42.432Z,85.20
2018-02-22T07:39:10.063Z,88.27
2018-02-22T07:41:38.408Z,82.47
2018-02-22T07:44:06.001Z,74.37
2018-02-22T07:46:33.624Z,73.57
2018-02-22T07:49:03.675Z,83.47
2018-02-22T07:51:31.300Z,80.33
2018-02-22T07:53:58.883Z,76.13
2018-02-22T07:56:26.500Z,75.80
2018-02-22T07:58:54.079Z,78.27
2018-02-22T08:01:22.563Z,79.90
2018-02-22T08:03:50.157Z,78.13
2018-02-22T08:06:17.747Z,82.90
2018-02-22T08:08:45.392Z,76.53
2018-02-22T08:11:13.752Z,69.80
2018-02-22T08:13:42.199Z,72.33
2018-02-22T08:16:09.802Z,79.93
2018-02-22T08:18:37.398Z,70.80
2018-02-22T08:21:05.031Z,72.10
2018-02-22T08:23:32.614Z,78.40
2018-02-22T08:26:00.204Z,70.83
2018-02-22T08:28:27.836Z,70.37
2018-02-22T08:30:55.424Z,72.03
2018-02-22T08:33:23.050Z,71.70
2018-02-22T08:35:51.445Z,66.73
2018-02-22T08:38:19.060Z,66.67
2018-02-22T08:40:46.642Z,61.83
2018-02-22T08:43:15.853Z,69.77
2018-02-22T08:45:43.444Z,69.60
2018-02-22T08:48:11.122Z,66.90
2018-02-22T08:50:38.752Z,60.70
2018-02-22T08:53:06.354Z,66.67
2018-02-22T08:55:33.981Z,67.13
2018-02-22T08:58:01.569Z,68.00
2018-02-22T09:00:29.199Z,63.60
2018-02-22T09:02:56.819Z,59.07
2018-02-22T09:05:24.406Z,61.97
2018-02-22T09:07:52.032Z,61.60
2018-02-22T09:10:19.627Z,57.37
2018-02-22T09:12:47.248Z,57.77
2018-02-22T09:15:15.573Z,52.53
2018-02-22T09:17:43.185Z,58.67
2018-02-22T09:20:10.830Z,52.17
2018-02-22T09:22:38.458Z,56.10
2018-02-22T09:25:06.050Z,55.83
2018-02-22T09:27:33.670Z,57.00
2018-02-22T09:30:01.296Z,52.13
2018-02-22T09:32:28.899Z,50.87
2018-02-22T09:34:56.499Z,53.70
2018-02-22T09:37:24.140Z,51.93
2018-02-22T09:39:51.757Z,51.97
2018-02-22T09:42:19.350Z,54.37
2018-02-22T09:44:46.986Z,49.47
2018-02-22T09:47:14.620Z,51.93
2018-02-22T09:49:42.221Z,50.40
2018-02-22T09:52:10.615Z,51.00
2018-02-22T09:54:38.962Z,50.13
2018-02-22T09:57:06.598Z,48.73
2018-02-22T09:59:34.194Z,48.23
2018-02-22T10:02:01.773Z,46.87
2018-02-22T10:04:29.401Z,44.17
2018-02-22T10:06:56.994Z,45.47
2018-02-22T10:09:25.339Z,43.07
2018-02-22T10:11:52.977Z,42.97
2018-02-22T10:14:20.562Z,36.37
2018-02-22T10:16:48.197Z,38.00
2018-02-22T10:19:15.792Z,40.23
2018-02-22T10:21:43.414Z,41.13
2018-02-22T10:24:11.002Z,39.17
2018-02-22T10:26:38.646Z,39.50
2018-02-22T10:29:06.238Z,43.10
2018-02-22T10:31:33.888Z,44.53
2018-02-22T10:34:01.470Z,43.57
2018-02-22T10:36:29.054Z,41.20
2018-02-22T10:38:56.695Z,45.37
2018-02-22T10:41:24.284Z,42.63
2018-02-22T10:43:51.913Z,40.20
2018-02-22T10:46:19.549Z,42.07
2018-02-22T10:48:47.143Z,45.00
2018-02-22T10:51:14.802Z,40.27
2018-02-22T10:53:42.394Z,44.97
2018-02-22T10:56:09.977Z,41.10
2018-02-22T10:58:38.373Z,40.73
2018-02-22T11:01:13.101Z,39.67
2018-02-22T11:03:44.085Z,42.53
2018-02-22T11:06:12.787Z,38.67
2018-02-22T11:08:41.844Z,41.60
2018-02-22T11:11:11.173Z,38.27
2018-02-22T11:13:42.030Z,39.57
2018-02-22T11:16:09.684Z,38.73
2018-02-22T11:18:38.098Z,35.10
2018-02-22T11:21:06.258Z,36.00
2018-02-22T11:23:38.539Z,28.97
2018-02-22T11:26:06.600Z,26.10
2018-02-22T11:28:34.999Z,25.10
2018-02-22T11:31:02.635Z,24.03
2018-02-22T11:33:30.344Z,26.67
2018-02-22T11:35:57.986Z,28.57
2018-02-22T11:38:25.660Z,27.83
2018-02-22T11:40:53.244Z,24.43
2018-02-22T11:43:20.847Z,28.33
2018-02-22T11:45:48.484Z,23.33
2018-02-22T11:48:17.946Z,25.83
2018-02-22T11:50:45.702Z,27.80
2018-02-22T11:53:13.295Z,21.73
2018-02-22T11:55:40.964Z,22.77
2018-02-22T11:58:08.559Z,25.93
2018-02-22T12:00:36.228Z,26.27
2018-02-22T12:03:03.828Z,23.93
2018-02-22T12:05:31.466Z,27.27
2018-02-22T12:07:59.136Z,24.30
2018-02-22T12:10:26.762Z,23.33
2018-02-22T12:12:54.359Z,24.80
2018-02-22T12:15:22.006Z,23.47
2018-02-22T12:17:49.638Z,24.47
2018-02-22T12:20:18.015Z,23.23
2018-02-22T12:22:46.409Z,25.83
2018-02-22T12:25:14.799Z,20.60
2018-02-22T12:27:42.431Z,23.07
2018-02-22T12:30:10.047Z,23.43
2018-02-22T12:32:37.641Z,26.97
2018-02-22T12:35:07.931Z,24.23
2018-02-22T12:37:39.905Z,26.17
2018-02-22T12:40:11.028Z,21.30
2018-02-22T12:42:41.692Z,23.27
2018-02-22T12:45:11.033Z,24.97
2018-02-22T12:47:40.905Z,23.63
2018-02-22T12:50:14.017Z,28.50
2018-02-22T12:52:45.890Z,24.43
2018-02-22T12:55:16.773Z,23.27
2018-02-22T12:57:48.343Z,20.67
2018-02-22T13:00:18.670Z,21.43
2018-02-22T13:02:48.689Z,23.17
2018-02-22T13:05:21.186Z,21.57
2018-02-22T13:07:55.846Z,20.10
2018-02-22T13:10:26.827Z,18.33
2018-02-22T13:12:57.725Z,18.83
2018-02-22T13:15:25.376Z,17.03
2018-02-22T13:17:53.804Z,20.33
2018-02-22T13:20:21.387Z,16.63
2018-02-22T13:22:48.983Z,20.50
2018-02-22T13:25:16.620Z,20.07
2018-02-22T13:27:44.207Z,16.60
2018-02-22T13:30:12.559Z,15.50
2018-02-22T13:32:51.947Z,16.10
2018-02-22T13:35:19.545Z,19.00
2018-02-22T13:40:47.930Z,16.53
2018-02-22T13:43:15.564Z,18.03
2018-02-22T13:45:43.176Z,19.10
2018-02-22T13:48:11.561Z,19.67
2018-02-22T13:50:52.811Z,16.33
2018-02-22T13:53:21.369Z,17.73
2018-02-22T13:55:48.956Z,18.83
2018-02-22T13:58:16.593Z,17.43
2018-02-22T14:00:56.063Z,16.70
2018-02-22T14:03:23.701Z,15.13
2018-02-22T14:05:51.313Z,17.07
2018-02-22T14:08:30.652Z,17.17
2018-02-22T14:10:58.273Z,19.70
2018-02-22T14:13:25.912Z,16.90
2018-02-22T14:15:53.571Z,17.30
2018-02-22T14:18:21.160Z,17.87
2018-02-22T14:20:48.754Z,17.67
2018-02-22T14:23:16.390Z,18.13
2018-02-22T14:25:43.979Z,19.03
2018-02-22T14:28:11.602Z,17.27
2018-02-22T14:30:39.235Z,24.60
2018-02-22T14:33:06.840Z,25.30
2018-02-22T14:35:34.505Z,25.07
2018-02-22T14:38:02.098Z,26.03
2018-02-22T14:40:29.697Z,25.77
2018-02-22T14:42:57.332Z,25.73
2018-02-22T14:45:25.736Z,26.70
2018-02-22T14:47:53.326Z,27.13
2018-02-22T14:50:20.944Z,25.97
2018-02-22T14:52:49.300Z,26.83
2018-02-22T14:55:16.919Z,23.23
2018-02-22T14:57:44.512Z,30.83
2018-02-22T15:00:12.154Z,27.40
2018-02-22T15:02:39.752Z,27.40
2018-02-22T15:05:08.172Z,25.30
2018-02-22T15:07:35.754Z,28.27
2018-02-22T15:10:03.331Z,27.07
2018-02-22T15:12:30.958Z,26.50
2018-02-22T15:14:58.577Z,28.43
2018-02-22T15:17:26.161Z,31.53
2018-02-22T15:19:53.744Z,29.03
2018-02-22T15:22:21.387Z,32.70
2018-02-22T15:24:48.980Z,30.40
2018-02-22T15:27:16.615Z,28.13
2018-02-22T15:29:44.511Z,26.73
2018-02-22T15:32:12.146Z,29.37
2018-02-22T15:34:41.564Z,27.17
2018-02-22T15:37:10.518Z,32.80
2018-02-22T15:39:38.772Z,30.33
2018-02-22T15:42:07.416Z,51.53
2018-02-22T15:44:35.197Z,32.70
2018-02-22T15:47:06.667Z,33.03
2018-02-22T15:49:34.306Z,31.27
2018-02-22T15:52:01.937Z,30.90
2018-02-22T15:54:30.913Z,29.57
2018-02-22T15:57:02.198Z,33.27
2018-02-22T15:59:29.854Z,34.37
2018-02-22T16:01:57.457Z,32.83
2018-02-22T16:04:25.093Z,30.47
2018-02-22T16:06:52.677Z,34.57
2018-02-22T16:09:20.261Z,35.33
2018-02-22T16:11:47.907Z,32.50
2018-02-22T16:14:15.492Z,35.03
2018-02-22T16:16:43.151Z,35.47
2018-02-22T16:19:11.501Z,32.67
2018-02-22T16:21:39.120Z,36.77
2018-02-22T16:24:06.750Z,35.90
2018-02-22T16:26:34.384Z,35.63
2018-02-22T16:29:01.969Z,34.53
2018-02-22T16:31:29.587Z,37.57
2018-02-22T16:33:57.224Z,32.13
2018-02-22T16:36:24.811Z,33.17
2018-02-22T16:38:52.395Z,36.03
2018-02-22T16:41:20.012Z,33.10
2018-02-22T16:43:47.656Z,36.13
2018-02-22T16:46:16.017Z,36.23
2018-02-22T16:48:43.626Z,32.83
2018-02-22T16:51:11.219Z,35.87
2018-02-22T16:53:38.843Z,33.50
2018-02-22T16:56:06.430Z,34.60
2018-02-22T16:58:34.035Z,39.27
2018-02-22T17:01:01.625Z,36.90
2018-02-22T17:03:29.248Z,36.90
2018-02-22T17:05:56.851Z,41.37
2018-02-22T17:08:24.556Z,40.87
2018-02-22T17:10:52.123Z,43.23
2018-02-22T17:13:19.745Z,41.93
2018-02-22T17:15:47.320Z,39.60
2018-02-22T17:18:14.945Z,46.47
2018-02-22T17:20:42.527Z,40.63
2018-02-22T17:23:10.169Z,43.83
2018-02-22T17:25:37.257Z,40.37
2018-02-22T17:28:10.652Z,43.23
2018-02-22T17:30:43.747Z,44.53
2018-02-22T17:33:11.354Z,42.57
2018-02-22T17:35:42.474Z,46.30
2018-02-22T17:41:12.510Z,46.73
2018-02-22T17:43:40.147Z,49.00
2018-02-22T17:46:07.747Z,43.83
2018-02-22T17:48:35.330Z,44.33
2018-02-22T17:51:02.935Z,48.30
2018-02-22T17:53:30.522Z,45.60
2018-02-22T17:55:58.143Z,49.10
2018-02-22T17:58:25.812Z,44.60
2018-02-22T18:00:56.014Z,44.67
2018-02-22T18:03:23.945Z,46.37
2018-02-22T18:05:51.535Z,49.20
2018-02-22T18:08:19.162Z,43.60
2018-02-22T18:10:46.745Z,49.77
2018-02-22T18:13:15.168Z,44.33
2018-02-22T18:15:43.520Z,45.73
2018-02-22T18:18:11.134Z,47.23
2018-02-22T18:20:41.631Z,44.67
2018-02-22T18:23:09.257Z,45.20
2018-02-22T18:25:37.625Z,42.53
2018-02-22T18:28:06.011Z,49.60
2018-02-22T18:30:34.399Z,47.83
2018-02-22T18:33:02.793Z,46.47
2018-02-22T18:35:30.388Z,44.20
2018-02-22T18:37:59.854Z,49.23
2018-02-22T18:40:33.188Z,51.43
2018-02-22T18:43:00.761Z,49.87
2018-02-22T18:45:28.434Z,48.70
2018-02-22T18:47:55.995Z,47.10
2018-02-22T18:50:23.639Z,54.03
2018-02-22T18:52:51.291Z,53.57
2018-02-22T18:55:19.185Z,52.47
2018-02-22T18:57:46.780Z,58.40
2018-02-22T19:00:14.363Z,58.53
2018-02-22T19:02:41.979Z,51.93
2018-02-22T19:05:09.571Z,53.33
2018-02-22T19:07:37.222Z,51.37
2018-02-22T19:10:04.808Z,53.43
2018-02-22T19:12:32.379Z,54.57
2018-02-22T19:15:00.537Z,54.23
2018-02-22T19:17:28.138Z,56.47
2018-02-22T19:19:55.763Z,53.57
2018-02-22T19:22:23.354Z,55.57
2018-02-22T19:24:50.935Z,55.63
2018-02-22T19:27:18.591Z,58.93
2018-02-22T19:29:46.265Z,58.70
2018-02-22T19:32:14.717Z,58.37
2018-02-22T19:34:42.563Z,56.80
2018-02-22T19:37:10.140Z,57.83
2018-02-22T19:39:37.820Z,58.03
2018-02-22T19:42:05.511Z,55.63
2018-02-22T19:44:33.217Z,58.77
2018-02-22T19:47:00.907Z,62.53
2018-02-22T19:49:28.591Z,63.97
2018-02-22T19:51:56.174Z,68.50
2018-02-22T19:54:24.554Z,62.40
2018-02-22T19:56:52.998Z,67.70
2018-02-22T19:59:20.818Z,70.00
2018-02-22T20:01:48.491Z,67.53
2018-02-22T20:04:16.167Z,67.80
2018-02-22T20:06:43.790Z,74.80
2018-02-22T20:09:11.379Z,67.70
2018-02-22T20:11:39.072Z,75.83
2018-02-22T20:14:06.803Z,87.50
2018-02-22T20:16:34.506Z,78.70
2018-02-22T20:19:02.093Z,82.40
2018-02-22T20:21:29.761Z,73.80
2018-02-22T20:23:57.985Z,79.53
2018-02-22T20:26:25.570Z,81.50
2018-02-22T20:28:53.204Z,75.20
2018-02-22T20:31:20.797Z,78.07
2018-02-22T20:33:48.399Z,73.10
2018-02-22T20:36:16.070Z,78.43
2018-02-22T20:38:43.715Z,77.80
2018-02-22T20:41:11.313Z,77.00
2018-02-22T20:43:38.935Z,79.47
2018-02-22T20:46:07.430Z,84.13
2018-02-22T20:48:35.095Z,85.77
2018-02-22T20:51:19.340Z,91.30
2018-02-22T20:53:46.960Z,83.90
2018-02-22T20:56:14.547Z,94.00
2018-02-22T20:58:43.080Z,81.57
2018-02-22T21:01:11.724Z,93.30
2018-02-22T21:03:42.068Z,85.87
2018-02-22T21:06:09.653Z,82.40
2018-02-22T21:08:37.240Z,87.17
2018-02-22T21:11:04.895Z,89.87
2018-02-22T21:13:34.455Z,85.87
2018-02-22T21:16:02.345Z,79.03
2018-02-22T21:18:30.233Z,80.87
2018-02-22T21:20:57.868Z,83.77
2018-02-22T21:23:25.455Z,84.37
2018-02-22T21:25:53.071Z,99.13
2018-02-22T21:28:20.769Z,91.57
2018-02-22T21:30:48.384Z,87.40
2018-02-22T21:33:16.019Z,97.60
2018-02-22T21:35:43.787Z,97.00
2018-02-22T21:38:11.614Z,93.20
2018-02-22T21:40:39.371Z,90.83
2018-02-22T21:43:07.094Z,85.63
2018-02-22T21:45:34.750Z,91.77
2018-02-22T21:48:02.388Z,86.53
2018-02-22T21:50:29.969Z,92.43
2018-02-22T21:52:57.599Z,83.83
2018-02-22T21:55:25.194Z,99.13
2018-02-22T21:57:53.011Z,89.53
2018-02-22T22:00:20.620Z,89.50
2018-02-22T22:02:48.248Z,87.93
2018-02-22T22:05:15.844Z,90.63
2018-02-22T22:07:43.466Z,77.97
2018-02-22T22:10:11.047Z,80.27
2018-02-22T22:12:38.682Z,91.20
2018-02-22T22:15:06.271Z,83.60
2018-02-22T22:17:33.918Z,89.97
2018-02-22T22:20:01.653Z,85.50
2018-02-22T22:22:29.261Z,86.77
2018-02-22T22:24:59.775Z,82.03
2018-02-22T22:27:27.377Z,90.90
2018-02-22T22:29:56.590Z,89.40
2018-02-22T22:32:24.208Z,83.23
2018-02-22T22:34:51.825Z,97.47
2018-02-22T22:37:19.436Z,86.13
2018-02-22T22:39:47.062Z,75.07
2018-02-22T22:42:14.686Z,90.37
2018-02-22T22:44:44.269Z,88.47
2018-02-22T22:47:11.890Z,83.57
2018-02-22T22:49:39.851Z,86.50
2018-02-22T22:52:07.677Z,79.00
2018-02-22T22:54:35.403Z,92.33
2018-02-22T22:57:03.064Z,98.93
2018-02-22T22:59:30.708Z,84.03
2018-02-22T23:01:58.301Z,83.87
2018-02-22T23:04:25.937Z,99.53
2018-02-22T23:06:53.773Z,90.77
2018-02-22T23:09:21.395Z,98.57
2018-02-22T23:11:49.031Z,93.13
2018-02-22T23:14:16.685Z,88.50
2018-02-22T23:16:44.344Z,93.23
2018-02-22T23:19:11.939Z,95.97
2018-02-22T23:21:40.059Z,97.13
2018-02-22T23:24:09.731Z,92.90
2018-02-22T23:26:38.210Z,90.60
2018-02-22T23:29:05.915Z,90.70
2018-02-22T23:31:34.464Z,84.37
2018-02-22T23:34:03.079Z,87.77
2018-02-22T23:36:32.286Z,90.03
2018-02-22T23:39:00.689Z,103.13
2018-02-22T23:41:33.884Z,98.77
2018-02-22T23:44:01.540Z,86.10
2018-02-22T23:46:29.788Z,85.40
2018-02-22T23:48:58.146Z,88.73
2018-02-22T23:51:26.216Z,85.67
2018-02-22T23:53:55.299Z,101.47
2018-02-22T23:56:22.985Z,91.87
2018-02-22T23:58:50.618Z,89.50
